Time;durP1;ratioP1;P1;durP2;ratioP2;P2;SDS_P1;SDS_P2;PMS_P1;PMS_P2;Temp;Humidity;BMP_temperature;BMP_pressure;BME280_temperature;BME280_humidity;BME280_pressure;Samples;Min_cycle;Max_cycle;Signal;HPM_P1;HPM_P2
2021/12/19 00:01:37;;;;;;;4.88;4.30;;;18.70;48.30;;;;;;5029261;28;20497;-71
2021/12/19 00:04:18;;;;;;;4.35;3.72;;;18.70;47.70;;;;;;5033627;28;20489;-70
2021/12/19 00:09:32;;;;;;;6.22;3.55;;;18.70;47.80;;;;;;5039670;28;20049;-70
2021/12/19 00:12:00;;;;;;;5.78;3.75;;;18.70;47.80;;;;;;5032694;28;20037;-70
2021/12/19 00:14:27;;;;;;;4.57;3.15;;;18.70;47.80;;;;;;5039269;28;20041;-70
2021/12/19 00:16:55;;;;;;;6.20;3.47;;;18.70;47.80;;;;;;5029781;28;20042;-69
2021/12/19 00:19:22;;;;;;;4.43;3.08;;;18.70;47.80;;;;;;5026798;28;20584;-69
2021/12/19 00:21:50;;;;;;;3.50;3.20;;;18.70;47.70;;;;;;5029207;28;20055;-69
2021/12/19 00:24:17;;;;;;;4.88;3.38;;;18.70;47.80;;;;;;5032507;28;20038;-70
2021/12/19 00:26:46;;;;;;;4.50;3.28;;;18.70;47.80;;;;;;5029662;28;20410;-69
2021/12/19 00:29:14;;;;;;;5.82;2.97;;;18.70;47.80;;;;;;5033709;28;20140;-69
2021/12/19 00:31:41;;;;;;;4.30;3.30;;;18.70;47.80;;;;;;5035428;28;20045;-69
2021/12/19 00:34:08;;;;;;;3.35;2.30;;;18.70;47.70;;;;;;5039128;28;20144;-69
2021/12/19 00:36:35;;;;;;;2.83;2.58;;;18.70;47.80;;;;;;5028456;28;20042;-69
2021/12/19 00:39:02;;;;;;;4.13;3.10;;;18.70;47.80;;;;;;5043074;28;20110;-70
2021/12/19 00:41:29;;;;;;;3.58;3.22;;;18.70;47.80;;;;;;5034598;28;20041;-69
2021/12/19 00:44:08;;;;;;;4.10;2.90;;;18.70;47.70;;;;;;5036121;28;20138;-69
2021/12/19 00:46:43;;;;;;;2.88;2.50;;;18.70;47.70;;;;;;5035890;28;20825;-69
2021/12/19 00:49:11;;;;;;;3.97;2.58;;;18.70;47.80;;;;;;5033401;28;20076;-69
2021/12/19 00:51:39;;;;;;;5.28;3.65;;;18.70;47.80;;;;;;5030513;28;20076;-69
2021/12/19 00:54:09;;;;;;;4.03;3.30;;;18.70;47.80;;;;;;5041022;28;20041;-69
2021/12/19 00:56:38;;;;;;;3.28;2.97;;;18.70;47.80;;;;;;5036759;28;20076;-70
2021/12/19 00:59:06;;;;;;;3.45;3.10;;;18.70;47.80;;;;;;5040297;28;20037;-70
2021/12/19 01:01:35;;;;;;;3.03;2.42;;;18.70;48.00;;;;;;5041350;28;20087;-69
2021/12/19 01:04:03;;;;;;;4.90;3.78;;;18.70;47.80;;;;;;5038514;28;20411;-69
2021/12/19 01:06:30;;;;;;;3.08;2.60;;;18.70;47.80;;;;;;5035318;28;20045;-69
2021/12/19 01:08:57;;;;;;;4.18;3.78;;;18.70;47.80;;;;;;5047028;28;20412;-69
2021/12/19 01:11:24;;;;;;;4.13;2.72;;;18.60;47.70;;;;;;5033391;28;20041;-69
2021/12/19 01:13:51;;;;;;;3.78;2.45;;;18.60;47.70;;;;;;5037540;28;20041;-69
2021/12/19 01:16:20;;;;;;;3.00;2.42;;;18.70;47.80;;;;;;5037530;28;20041;-69
2021/12/19 01:18:47;;;;;;;2.45;2.25;;;18.70;47.80;;;;;;5042128;28;20120;-69
2021/12/19 01:21:15;;;;;;;2.50;2.30;;;18.70;47.80;;;;;;5044096;28;20040;-69
2021/12/19 01:23:43;;;;;;;2.97;2.55;;;18.70;47.80;;;;;;5038037;28;20042;-70
2021/12/19 01:26:10;;;;;;;2.85;2.60;;;18.60;47.70;;;;;;5032319;28;20052;-70
2021/12/19 01:28:37;;;;;;;2.97;2.22;;;18.60;47.70;;;;;;5038740;28;20047;-58
2021/12/19 01:31:05;;;;;;;4.07;2.25;;;18.60;47.70;;;;;;5042060;28;20114;-69
2021/12/19 01:33:33;;;;;;;3.20;2.17;;;18.60;47.70;;;;;;5033132;28;20045;-69
2021/12/19 01:36:00;;;;;;;3.58;2.80;;;18.60;47.70;;;;;;5031672;28;20058;-71
2021/12/19 01:38:28;;;;;;;4.05;2.13;;;18.60;47.80;;;;;;5046706;28;20045;-69
2021/12/19 01:40:55;;;;;;;2.65;2.22;;;18.60;47.70;;;;;;5037158;28;20037;-70
2021/12/19 01:43:24;;;;;;;3.88;2.67;;;18.60;47.70;;;;;;5031808;28;20061;-69
2021/12/19 01:45:52;;;;;;;2.38;2.17;;;18.60;47.70;;;;;;5030167;28;20056;-69
2021/12/19 01:48:21;;;;;;;3.72;2.55;;;18.60;47.80;;;;;;5032102;28;20068;-70
2021/12/19 01:50:49;;;;;;;3.25;2.58;;;18.60;47.80;;;;;;5038545;28;20545;-69
2021/12/19 01:53:17;;;;;;;5.82;3.70;;;18.60;47.80;;;;;;5031308;28;20038;-70
2021/12/19 01:55:47;;;;;;;4.13;2.88;;;18.60;47.80;;;;;;5035560;28;20498;-69
2021/12/19 01:58:15;;;;;;;2.60;2.40;;;18.60;47.80;;;;;;5039021;28;20048;-69
2021/12/19 02:00:44;;;;;;;3.78;3.40;;;18.60;47.70;;;;;;5033657;28;20056;-69
2021/12/19 02:03:12;;;;;;;5.00;2.40;;;18.60;47.80;;;;;;5029173;28;20505;-70
2021/12/19 02:05:40;;;;;;;2.85;2.03;;;18.60;47.80;;;;;;5037154;28;20727;-69
2021/12/19 02:08:09;;;;;;;2.97;2.20;;;18.60;47.80;;;;;;5040108;28;20037;-69
2021/12/19 02:10:37;;;;;;;2.25;2.05;;;18.60;47.70;;;;;;5037758;28;20504;-69
2021/12/19 02:13:06;;;;;;;2.95;2.28;;;18.60;47.80;;;;;;5032909;28;20044;-69
2021/12/19 02:15:34;;;;;;;2.00;1.67;;;18.60;47.70;;;;;;5033405;28;20417;-69
2021/12/19 02:18:05;;;;;;;2.10;1.65;;;18.60;47.70;;;;;;5032562;28;20048;-69
2021/12/19 02:20:35;;;;;;;2.42;2.22;;;18.60;47.70;;;;;;5037147;28;20060;-69
2021/12/19 02:23:03;;;;;;;2.08;1.90;;;18.60;47.80;;;;;;5036039;28;20414;-69
2021/12/19 02:25:30;;;;;;;2.38;2.15;;;18.60;47.80;;;;;;5031765;28;20036;-69
2021/12/19 02:27:57;;;;;;;1.77;1.67;;;18.60;47.80;;;;;;5031484;28;20041;-59
2021/12/19 02:30:24;;;;;;;2.25;2.05;;;18.60;47.90;;;;;;5029120;28;20095;-69
2021/12/19 02:32:51;;;;;;;2.03;1.88;;;18.60;47.80;;;;;;5037560;28;20132;-69
2021/12/19 02:35:22;;;;;;;1.42;1.33;;;18.60;47.80;;;;;;5031670;28;20140;-68
2021/12/19 02:49:24;;;;;;;2.10;1.45;;;18.50;47.80;;;;;;4966753;28;20504;-69
2021/12/19 02:51:52;;;;;;;2.40;1.92;;;18.50;47.80;;;;;;4962152;28;20574;-69
2021/12/19 02:54:21;;;;;;;1.65;1.50;;;18.50;47.80;;;;;;4967046;28;20475;-68
2021/12/19 02:56:49;;;;;;;2.22;1.38;;;18.50;47.80;;;;;;4950839;28;20043;-69
2021/12/19 02:59:16;;;;;;;2.50;1.45;;;18.50;47.80;;;;;;4965436;28;20488;-69
2021/12/19 03:01:45;;;;;;;1.40;1.30;;;18.50;47.80;;;;;;4969176;28;20538;-69
2021/12/19 03:04:13;;;;;;;1.50;1.35;;;18.50;47.80;;;;;;4970397;28;20073;-69
2021/12/19 03:06:45;;;;;;;1.45;1.25;;;18.50;47.80;;;;;;4967047;28;20416;-69
2021/12/19 03:09:16;;;;;;;1.38;1.27;;;18.50;47.80;;;;;;4976064;28;20057;-68
2021/12/19 03:12:06;;;;;;;1.33;1.27;;;18.50;47.80;;;;;;5009298;28;20521;-69
2021/12/19 03:20:04;;;;;;;0.85;0.85;;;18.50;47.90;;;;;;5031366;28;20494;-69
2021/12/19 03:22:31;;;;;;;1.85;1.35;;;18.50;47.90;;;;;;5034527;28;20037;-69
2021/12/19 03:24:59;;;;;;;2.47;1.15;;;18.50;47.90;;;;;;5034242;28;20075;-69
2021/12/19 03:27:27;;;;;;;1.35;1.15;;;18.50;47.90;;;;;;5032394;28;20048;-69
2021/12/19 03:29:54;;;;;;;1.10;1.00;;;18.50;47.80;;;;;;5042774;28;20067;-69
2021/12/19 03:32:24;;;;;;;2.55;1.50;;;18.50;47.80;;;;;;5030647;28;20045;-69
2021/12/19 03:34:51;;;;;;;1.45;1.30;;;18.50;47.80;;;;;;5036749;28;20502;-69
2021/12/19 03:37:18;;;;;;;1.45;1.17;;;18.50;47.80;;;;;;5031723;28;20048;-68
2021/12/19 03:39:57;;;;;;;1.70;1.23;;;18.50;47.80;;;;;;5041326;28;20069;-69
2021/12/19 03:42:27;;;;;;;1.08;0.80;;;18.50;47.80;;;;;;5030254;28;20061;-69
2021/12/19 03:44:55;;;;;;;0.85;0.85;;;18.50;47.90;;;;;;5034415;28;20132;-69
2021/12/19 03:47:22;;;;;;;0.88;0.88;;;18.50;47.80;;;;;;5031219;28;20548;-69
2021/12/19 03:49:49;;;;;;;1.20;1.10;;;18.50;47.90;;;;;;5033879;28;20058;-69
2021/12/19 03:52:16;;;;;;;1.25;1.10;;;18.50;47.90;;;;;;5030430;28;20068;-69
2021/12/19 03:54:43;;;;;;;2.25;1.10;;;18.50;47.80;;;;;;5030045;28;20041;-69
2021/12/19 03:57:11;;;;;;;1.48;0.93;;;18.50;47.90;;;;;;5031246;28;20114;-69
2021/12/19 03:59:40;;;;;;;1.42;0.88;;;18.50;47.80;;;;;;5034863;28;20068;-69
2021/12/19 04:02:07;;;;;;;1.98;1.42;;;18.50;48.40;;;;;;5031897;28;20053;-69
2021/12/19 04:04:38;;;;;;;1.80;1.25;;;18.50;47.80;;;;;;5032887;28;20128;-69
2021/12/19 04:07:05;;;;;;;1.38;1.27;;;18.50;47.80;;;;;;5030349;28;20049;-70
2021/12/19 04:09:32;;;;;;;1.17;0.93;;;18.50;47.80;;;;;;5041023;28;20073;-69
2021/12/19 04:11:59;;;;;;;1.25;0.93;;;18.50;47.80;;;;;;5045409;28;20041;-68
2021/12/19 04:14:26;;;;;;;1.45;1.23;;;18.50;47.80;;;;;;5033934;28;20524;-69
2021/12/19 04:16:55;;;;;;;1.80;0.93;;;18.50;47.80;;;;;;5038745;28;20051;-69
2021/12/19 04:19:22;;;;;;;1.13;0.95;;;18.50;47.80;;;;;;5035207;28;20033;-69
2021/12/19 04:21:49;;;;;;;1.35;0.95;;;18.50;47.90;;;;;;5032496;28;20090;-69
2021/12/19 04:24:16;;;;;;;0.75;0.75;;;18.50;47.80;;;;;;5034527;28;27841;-70
2021/12/19 04:26:43;;;;;;;1.38;0.82;;;18.50;47.80;;;;;;5038956;28;20505;-68
2021/12/19 04:29:11;;;;;;;1.05;0.68;;;18.40;47.80;;;;;;5033868;28;20442;-69
2021/12/19 04:31:38;;;;;;;1.33;1.02;;;18.50;47.80;;;;;;5036638;28;20049;-69
2021/12/19 04:34:07;;;;;;;1.02;1.02;;;18.50;47.80;;;;;;5035363;28;20041;-69
2021/12/19 04:36:39;;;;;;;0.88;0.80;;;18.40;47.80;;;;;;5035188;28;20060;-69
2021/12/19 04:53:18;;;;;;;0.93;0.80;;;18.40;47.80;;;;;;5056863;28;20505;-70
2021/12/19 04:59:05;;;;;;;1.13;0.70;;;18.40;47.80;;;;;;5018619;28;20100;-70
2021/12/19 05:01:59;;;;;;;0.95;0.77;;;18.40;47.90;;;;;;5019829;28;20033;-69
2021/12/19 05:15:25;;;;;;;0.93;0.90;;;18.40;47.90;;;;;;4960653;28;20079;-69
2021/12/19 05:17:55;;;;;;;1.67;1.23;;;18.30;47.90;;;;;;4961965;28;20141;-70
2021/12/19 05:20:26;;;;;;;1.17;1.02;;;18.40;47.90;;;;;;4954905;28;20047;-70
2021/12/19 05:22:59;;;;;;;0.90;0.50;;;18.40;47.90;;;;;;4960505;28;20047;-70
2021/12/19 05:25:26;;;;;;;2.28;0.40;;;18.40;47.90;;;;;;4960988;28;20047;-69
2021/12/19 05:27:55;;;;;;;1.27;0.77;;;18.40;47.90;;;;;;4961139;28;20111;-70
2021/12/19 05:30:22;;;;;;;0.80;0.80;;;18.40;47.90;;;;;;4990937;28;20053;-69
2021/12/19 05:32:51;;;;;;;1.77;0.95;;;18.40;47.90;;;;;;4984823;28;20065;-69
2021/12/19 05:35:29;;;;;;;1.10;0.30;;;18.40;47.90;;;;;;4983224;28;20049;-69
2021/12/19 05:46:09;;;;;;;0.32;0.25;;;18.40;47.90;;;;;;5002232;28;20041;-70
2021/12/19 05:48:36;;;;;;;1.77;0.50;;;18.30;47.80;;;;;;5046696;28;20519;-70
2021/12/19 05:51:05;;;;;;;0.70;0.70;;;18.40;47.90;;;;;;5058863;28;20041;-69
2021/12/19 05:53:32;;;;;;;0.85;0.50;;;18.40;47.90;;;;;;5057843;28;20424;-70
2021/12/19 05:55:59;;;;;;;1.10;0.70;;;18.30;47.80;;;;;;5037471;28;20533;-69
2021/12/19 05:58:26;;;;;;;1.60;0.60;;;18.40;47.90;;;;;;5039927;28;20091;-69
2021/12/19 06:00:53;;;;;;;0.57;0.45;;;18.30;47.80;;;;;;5035283;28;20126;-69
2021/12/19 06:03:20;;;;;;;0.57;0.50;;;18.40;47.90;;;;;;5036249;28;20106;-68
2021/12/19 06:05:47;;;;;;;0.40;0.40;;;18.40;47.80;;;;;;5035333;28;20045;-70
2021/12/19 06:08:16;;;;;;;0.57;0.20;;;18.40;47.90;;;;;;5042943;28;20064;-70
2021/12/19 06:10:43;;;;;;;1.50;0.50;;;18.40;47.90;;;;;;5042551;28;20098;-69
2021/12/19 06:13:10;;;;;;;0.47;0.30;;;18.30;47.80;;;;;;5036425;28;20059;-69
2021/12/19 06:15:37;;;;;;;0.73;0.60;;;18.40;47.90;;;;;;5032797;28;20041;-69
2021/12/19 06:18:04;;;;;;;0.80;0.80;;;18.40;47.90;;;;;;5032562;28;20052;-70
2021/12/19 06:20:33;;;;;;;0.65;0.40;;;18.40;47.80;;;;;;5041261;28;20080;-69
2021/12/19 06:23:00;;;;;;;0.52;0.20;;;18.40;47.80;;;;;;5036773;28;20514;-70
2021/12/19 06:25:28;;;;;;;0.98;0.30;;;18.40;47.80;;;;;;5037339;28;20421;-69
2021/12/19 06:27:56;;;;;;;0.77;0.40;;;18.30;47.80;;;;;;5035358;28;20045;-70
2021/12/19 06:30:23;;;;;;;0.85;0.50;;;18.30;47.80;;;;;;5036328;28;20033;-69
2021/12/19 06:32:50;;;;;;;0.68;0.52;;;18.30;47.80;;;;;;5035441;28;20041;-69
2021/12/19 06:35:19;;;;;;;1.02;0.50;;;18.30;47.80;;;;;;5036842;28;20037;-69
2021/12/19 06:37:47;;;;;;;1.50;0.40;;;18.40;47.80;;;;;;5041511;28;20664;-70
2021/12/19 06:40:17;;;;;;;0.73;0.73;;;18.30;47.80;;;;;;5046029;28;20037;-70
2021/12/19 06:42:46;;;;;;;1.10;0.45;;;18.30;47.80;;;;;;5033623;28;20049;-69
2021/12/19 06:45:14;;;;;;;0.30;0.30;;;18.40;47.90;;;;;;5033691;28;20052;-70
2021/12/19 06:47:42;;;;;;;0.50;0.40;;;18.40;47.80;;;;;;5047647;28;20049;-70
2021/12/19 06:50:12;;;;;;;0.50;0.45;;;18.30;47.70;;;;;;5037176;28;20561;-69
2021/12/19 06:52:40;;;;;;;0.30;0.25;;;18.30;47.80;;;;;;5037760;28;20044;-69
2021/12/19 06:55:08;;;;;;;0.68;0.20;;;18.30;47.80;;;;;;5036192;28;20033;-69
2021/12/19 06:57:36;;;;;;;0.60;0.47;;;18.30;47.80;;;;;;5036661;28;20045;-69
2021/12/19 07:00:05;;;;;;;0.38;0.38;;;18.30;47.80;;;;;;5033781;28;20049;-69
2021/12/19 07:02:33;;;;;;;0.75;0.32;;;18.30;47.80;;;;;;5040029;28;20032;-70
2021/12/19 07:05:00;;;;;;;0.40;0.20;;;18.30;47.80;;;;;;5047308;28;20055;-69
2021/12/19 07:07:27;;;;;;;0.30;0.22;;;18.30;47.80;;;;;;5037998;28;20480;-69
2021/12/19 07:09:55;;;;;;;0.80;0.30;;;18.30;47.80;;;;;;5046286;28;20104;-70
2021/12/19 07:12:26;;;;;;;0.25;0.20;;;18.30;47.80;;;;;;5029718;28;20065;-69
2021/12/19 07:14:53;;;;;;;0.20;0.20;;;18.30;47.80;;;;;;5033221;28;20099;-69
2021/12/19 07:17:22;;;;;;;0.55;0.50;;;18.30;47.80;;;;;;5033684;28;20041;-69
2021/12/19 07:19:49;;;;;;;1.77;0.45;;;18.30;47.80;;;;;;5037335;28;20051;-70
2021/12/19 07:22:18;;;;;;;0.43;0.30;;;18.30;47.80;;;;;;5034245;28;20139;-69
2021/12/19 07:24:46;;;;;;;1.35;0.30;;;18.30;47.80;;;;;;5031508;28;20045;-70
2021/12/19 07:27:13;;;;;;;0.35;0.30;;;18.30;47.80;;;;;;5032336;28;20100;-70
2021/12/19 07:29:40;;;;;;;0.30;0.20;;;18.30;47.80;;;;;;5038108;28;20075;-70
2021/12/19 07:32:08;;;;;;;0.85;0.40;;;18.30;47.80;;;;;;5033884;28;20049;-69
2021/12/19 07:34:38;;;;;;;0.40;0.40;;;18.30;47.80;;;;;;5037629;28;20144;-71
2021/12/19 07:37:05;;;;;;;0.65;0.30;;;18.30;47.80;;;;;;5034145;28;20041;-69
2021/12/19 07:39:41;;;;;;;0.40;0.40;;;18.30;47.80;;;;;;5044457;28;20824;-70
2021/12/19 07:42:11;;;;;;;0.20;0.10;;;18.30;47.80;;;;;;5031190;28;20049;-70
2021/12/19 07:44:39;;;;;;;0.55;0.20;;;18.30;47.80;;;;;;5031762;28;20111;-64
2021/12/19 07:47:07;;;;;;;0.50;0.47;;;18.30;47.80;;;;;;5042278;28;20150;-69
2021/12/19 07:49:36;;;;;;;0.65;0.20;;;18.30;47.80;;;;;;5040486;28;20041;-69
2021/12/19 07:52:04;;;;;;;0.40;0.35;;;18.30;47.80;;;;;;5032117;28;20489;-70
2021/12/19 07:54:32;;;;;;;1.23;0.35;;;18.30;47.80;;;;;;5033690;28;20037;-69
2021/12/19 07:56:59;;;;;;;0.32;0.20;;;18.30;47.80;;;;;;5035627;28;20049;-69
2021/12/19 07:59:26;;;;;;;1.45;0.28;;;18.30;47.90;;;;;;5034186;28;20437;-69
2021/12/19 08:01:53;;;;;;;1.02;0.28;;;18.30;47.80;;;;;;5034804;28;20041;-69
2021/12/19 08:04:20;;;;;;;0.38;0.30;;;18.30;48.40;;;;;;5036169;28;20044;-69
2021/12/19 08:06:48;;;;;;;0.43;0.20;;;18.30;47.80;;;;;;5035075;28;20107;-69
2021/12/19 08:09:23;;;;;;;0.63;0.20;;;18.30;48.40;;;;;;5045084;28;20044;-68
2021/12/19 08:11:51;;;;;;;0.28;0.20;;;18.30;47.90;;;;;;5033470;28;20054;-68
2021/12/19 08:14:19;;;;;;;0.20;0.10;;;18.30;47.80;;;;;;5039520;28;20045;-70
2021/12/19 08:16:47;;;;;;;0.30;0.30;;;18.30;47.80;;;;;;5035173;28;20628;-69
2021/12/19 08:19:15;;;;;;;0.43;0.22;;;18.30;47.80;;;;;;5033550;28;20095;-69
2021/12/19 08:21:42;;;;;;;0.32;0.30;;;18.30;47.80;;;;;;5033644;28;20141;-69
2021/12/19 08:24:12;;;;;;;0.28;0.20;;;18.30;47.80;;;;;;5035662;28;20068;-70
2021/12/19 08:26:41;;;;;;;0.55;0.30;;;18.30;47.80;;;;;;5033798;28;20041;-69
2021/12/19 08:29:10;;;;;;;1.85;0.40;;;18.30;47.80;;;;;;5037309;28;20048;-69
2021/12/19 08:31:38;;;;;;;0.60;0.20;;;18.30;47.80;;;;;;5043504;28;20750;-69
2021/12/19 08:34:05;;;;;;;0.35;0.22;;;18.30;47.80;;;;;;5036341;28;20044;-68
2021/12/19 08:36:32;;;;;;;0.40;0.38;;;18.30;47.90;;;;;;5032736;28;20063;-69
2021/12/19 08:38:59;;;;;;;0.20;0.20;;;18.30;47.80;;;;;;5043580;28;20041;-69
2021/12/19 08:41:28;;;;;;;0.20;0.10;;;18.30;47.90;;;;;;5044804;28;20131;-69
2021/12/19 08:43:56;;;;;;;0.30;0.13;;;18.30;47.80;;;;;;5040169;28;20056;-68
2021/12/19 08:46:23;;;;;;;0.55;0.38;;;18.30;47.80;;;;;;5036180;28;20095;-68
2021/12/19 08:48:50;;;;;;;0.35;0.15;;;18.30;47.80;;;;;;5042511;28;20584;-70
2021/12/19 08:51:17;;;;;;;0.35;0.10;;;18.30;47.90;;;;;;5030154;28;20064;-70
2021/12/19 08:53:45;;;;;;;0.57;0.20;;;18.30;47.90;;;;;;5031213;28;20056;-70
2021/12/19 08:56:12;;;;;;;0.30;0.30;;;18.30;47.80;;;;;;5038870;28;20127;-70
2021/12/19 08:58:40;;;;;;;0.85;0.20;;;18.30;47.80;;;;;;5032494;28;20559;-68
2021/12/19 09:01:07;;;;;;;0.30;0.28;;;18.30;47.80;;;;;;5029814;28;20034;-70
2021/12/19 09:03:35;;;;;;;0.30;0.20;;;18.30;47.80;;;;;;5031744;28;20041;-70
2021/12/19 09:06:02;;;;;;;0.30;0.20;;;18.30;47.80;;;;;;5032942;28;20421;-70
2021/12/19 09:08:30;;;;;;;0.60;0.20;;;18.30;47.80;;;;;;5045743;28;20037;-70
2021/12/19 09:10:58;;;;;;;0.28;0.20;;;18.30;47.80;;;;;;5036550;28;20521;-70
2021/12/19 09:13:25;;;;;;;0.82;0.10;;;18.30;47.80;;;;;;5035410;28;20075;-69
2021/12/19 09:15:54;;;;;;;0.43;0.15;;;18.30;47.70;;;;;;5033108;28;20048;-69
2021/12/19 09:18:22;;;;;;;0.20;0.17;;;18.30;47.80;;;;;;5030086;28;20044;-70
2021/12/19 09:20:50;;;;;;;0.75;0.30;;;18.30;47.80;;;;;;5031795;28;20045;-69
2021/12/19 09:23:18;;;;;;;0.73;0.30;;;18.30;47.70;;;;;;5042976;28;20046;-69
2021/12/19 09:25:45;;;;;;;0.30;0.20;;;18.30;47.70;;;;;;5034695;28;20461;-69
2021/12/19 09:28:13;;;;;;;0.20;0.10;;;18.30;47.80;;;;;;5032588;28;20037;-69
2021/12/19 09:30:41;;;;;;;0.55;0.20;;;18.30;47.80;;;;;;5034405;28;20271;-69
2021/12/19 09:33:10;;;;;;;0.30;0.30;;;18.30;47.70;;;;;;5037594;28;20037;-69
2021/12/19 09:35:38;;;;;;;0.20;0.10;;;18.30;47.70;;;;;;5037423;28;20054;-69
2021/12/19 09:38:06;;;;;;;2.05;0.30;;;18.30;47.70;;;;;;5043062;28;20045;-70
2021/12/19 09:40:36;;;;;;;1.10;0.20;;;18.30;47.70;;;;;;5047116;28;20036;-68
2021/12/19 09:43:09;;;;;;;0.30;0.28;;;18.30;47.70;;;;;;5037460;28;20041;-69
2021/12/19 09:45:37;;;;;;;0.65;0.20;;;18.30;47.70;;;;;;5033953;28;20047;-68
2021/12/19 09:48:05;;;;;;;0.35;0.35;;;18.30;47.70;;;;;;5034182;28;20511;-68
2021/12/19 09:50:33;;;;;;;0.40;0.40;;;18.30;47.70;;;;;;5040579;28;20536;-70
2021/12/19 09:53:00;;;;;;;0.50;0.20;;;18.30;47.70;;;;;;5041016;28;20053;-69
2021/12/19 09:55:28;;;;;;;0.50;0.30;;;18.30;47.70;;;;;;5045402;28;20109;-70
2021/12/19 09:57:57;;;;;;;0.30;0.30;;;18.30;47.70;;;;;;5045264;28;20043;-70
2021/12/19 10:00:24;;;;;;;1.15;0.20;;;18.30;47.70;;;;;;5038516;28;20057;-69
2021/12/19 10:02:51;;;;;;;0.22;0.20;;;18.30;47.70;;;;;;5036471;28;20049;-69
2021/12/19 10:05:23;;;;;;;0.22;0.13;;;18.30;47.70;;;;;;5038913;28;20063;-66
2021/12/19 10:07:54;;;;;;;0.70;0.47;;;18.30;47.70;;;;;;5043264;28;20041;-70
2021/12/19 10:10:36;;;;;;;0.30;0.10;;;18.30;47.70;;;;;;5047204;28;20037;-70
2021/12/19 10:13:03;;;;;;;1.58;0.32;;;18.30;47.70;;;;;;5035154;28;20040;-69
2021/12/19 10:15:33;;;;;;;0.40;0.20;;;18.30;47.70;;;;;;5036499;28;20037;-70
2021/12/19 10:18:04;;;;;;;1.00;0.40;;;18.30;47.70;;;;;;5032985;28;20041;-69
2021/12/19 10:20:47;;;;;;;0.38;0.25;;;18.30;47.70;;;;;;5034607;28;20134;-69
2021/12/19 10:23:19;;;;;;;0.70;0.70;;;18.30;47.70;;;;;;5041760;28;20141;-71
2021/12/19 10:25:59;;;;;;;0.40;0.30;;;18.30;47.70;;;;;;5035020;28;20045;-70
2021/12/19 10:28:28;;;;;;;0.20;0.10;;;18.30;47.70;;;;;;5037120;28;20501;-69
2021/12/19 10:30:56;;;;;;;0.50;0.20;;;18.30;47.70;;;;;;5035345;28;20120;-69
2021/12/19 10:33:26;;;;;;;0.43;0.43;;;18.30;47.70;;;;;;5035281;28;20051;-70
2021/12/19 10:35:55;;;;;;;0.75;0.40;;;18.30;47.70;;;;;;5030673;28;20619;-70
2021/12/19 10:38:26;;;;;;;0.63;0.32;;;18.30;47.70;;;;;;5044317;28;20506;-70
2021/12/19 10:40:55;;;;;;;0.20;0.20;;;18.30;47.70;;;;;;5045022;28;20045;-70
2021/12/19 10:43:27;;;;;;;0.77;0.57;;;18.30;47.70;;;;;;5034903;28;20057;-69
2021/12/19 10:45:58;;;;;;;0.90;0.20;;;18.30;47.70;;;;;;5032981;28;20067;-70
2021/12/19 10:48:28;;;;;;;0.25;0.10;;;18.30;47.60;;;;;;5031408;28;20110;-70
2021/12/19 10:51:03;;;;;;;0.45;0.45;;;18.30;47.60;;;;;;5034915;28;20041;-69
2021/12/19 10:53:35;;;;;;;0.50;0.40;;;18.30;47.60;;;;;;5036738;28;20549;-70
2021/12/19 10:56:04;;;;;;;1.48;0.30;;;18.30;48.20;;;;;;5035666;28;20061;-69
2021/12/19 10:58:38;;;;;;;0.35;0.35;;;18.30;47.60;;;;;;5039542;28;20056;-69
2021/12/19 11:01:14;;;;;;;0.75;0.73;;;18.30;47.60;;;;;;5047165;28;20045;-71
2021/12/19 11:03:47;;;;;;;0.60;0.60;;;18.30;47.60;;;;;;5044827;28;20045;-69
2021/12/19 11:06:25;;;;;;;0.93;0.20;;;18.30;47.60;;;;;;5032592;28;20522;-69
2021/12/19 11:08:55;;;;;;;0.50;0.40;;;18.30;47.60;;;;;;5044285;28;20080;-70
2021/12/19 11:11:41;;;;;;;0.60;0.30;;;18.30;47.50;;;;;;5036452;28;20129;-69
2021/12/19 11:14:09;;;;;;;0.60;0.60;;;18.40;47.50;;;;;;5036550;28;20493;-69
2021/12/19 11:16:37;;;;;;;0.38;0.20;;;18.30;47.60;;;;;;5040099;28;20055;-70
2021/12/19 11:19:04;;;;;;;1.40;0.22;;;18.30;47.50;;;;;;5036057;28;20537;-70
2021/12/19 11:21:34;;;;;;;0.32;0.20;;;18.30;47.50;;;;;;5032669;28;20731;-70
2021/12/19 11:24:05;;;;;;;1.67;0.50;;;18.40;47.50;;;;;;5033093;28;20132;-70
2021/12/19 11:26:33;;;;;;;0.40;0.20;;;18.30;47.40;;;;;;5040957;28;20045;-70
2021/12/19 11:29:00;;;;;;;0.40;0.40;;;18.30;47.40;;;;;;5039444;28;20037;-69
2021/12/19 11:31:30;;;;;;;0.57;0.20;;;18.30;47.40;;;;;;5043697;28;20124;-69
2021/12/19 11:34:19;;;;;;;0.75;0.52;;;18.40;47.50;;;;;;5034247;28;20033;-69
2021/12/19 11:36:52;;;;;;;0.85;0.20;;;18.40;47.40;;;;;;5033891;28;20395;-70
2021/12/19 11:39:21;;;;;;;0.85;0.40;;;18.30;47.30;;;;;;5045670;28;20033;-69
2021/12/19 11:42:19;;;;;;;0.85;0.30;;;18.40;47.40;;;;;;5035355;28;20045;-70
2021/12/19 11:45:01;;;;;;;1.48;0.40;;;18.40;47.30;;;;;;5004714;28;20360;-70
2021/12/19 11:47:39;;;;;;;0.45;0.20;;;18.40;47.40;;;;;;5002775;28;20116;-69
2021/12/19 11:50:18;;;;;;;0.30;0.30;;;18.40;47.30;;;;;;5001995;28;20042;-69
2021/12/19 11:52:45;;;;;;;0.30;0.20;;;18.40;47.30;;;;;;5002699;28;20447;-69
2021/12/19 11:55:27;;;;;;;0.70;0.20;;;18.30;47.30;;;;;;5000796;28;20041;-70
2021/12/19 11:58:17;;;;;;;1.48;0.35;;;18.40;47.20;;;;;;4997664;28;20050;-70
2021/12/19 12:00:50;;;;;;;2.85;0.30;;;18.40;47.20;;;;;;4983526;28;20137;-70
2021/12/19 12:03:30;;;;;;;0.63;0.35;;;18.40;47.20;;;;;;5002457;28;20085;-70
2021/12/19 12:06:39;;;;;;;0.32;0.30;;;18.40;47.20;;;;;;5001042;28;20054;-70
2021/12/19 12:09:23;;;;;;;0.40;0.40;;;18.40;47.10;;;;;;5002428;28;20128;-70
2021/12/19 12:12:16;;;;;;;0.30;0.20;;;18.40;47.30;;;;;;5004951;28;20138;-68
2021/12/19 12:14:55;;;;;;;1.77;0.38;;;18.40;47.10;;;;;;5003843;28;20046;-70
2021/12/19 12:17:29;;;;;;;1.77;0.30;;;18.40;47.20;;;;;;5003864;28;20341;-68
2021/12/19 12:20:00;;;;;;;0.28;0.20;;;18.40;47.20;;;;;;5029564;28;20534;-68
2021/12/19 12:22:43;;;;;;;0.57;0.57;;;18.40;47.20;;;;;;5036791;28;20056;-68
2021/12/19 12:25:17;;;;;;;0.55;0.40;;;18.40;47.20;;;;;;5034064;28;20069;-69
2021/12/19 12:27:50;;;;;;;0.30;0.30;;;18.40;47.20;;;;;;5035230;28;20044;-69
2021/12/19 12:30:21;;;;;;;0.38;0.30;;;18.40;47.20;;;;;;5030614;28;20045;-70
2021/12/19 12:32:48;;;;;;;0.60;0.28;;;18.40;47.10;;;;;;5032524;28;20132;-70
2021/12/19 12:35:17;;;;;;;0.30;0.28;;;18.40;47.10;;;;;;5038647;28;20080;-70
2021/12/19 12:37:47;;;;;;;0.22;0.20;;;18.40;47.10;;;;;;5034267;28;20477;-71
2021/12/19 12:40:24;;;;;;;0.73;0.55;;;18.40;47.10;;;;;;5036590;28;20402;-70
2021/12/19 12:43:09;;;;;;;0.20;0.20;;;18.50;47.20;;;;;;5044723;28;20052;-68
2021/12/19 12:46:07;;;;;;;0.73;0.30;;;18.40;47.00;;;;;;5031297;28;20045;-69
2021/12/19 12:48:38;;;;;;;0.30;0.20;;;18.50;47.00;;;;;;5003231;28;20518;-70
2021/12/19 12:51:08;;;;;;;0.50;0.50;;;18.40;47.10;;;;;;5000642;28;20832;-69
2021/12/19 12:53:38;;;;;;;0.57;0.57;;;18.40;47.10;;;;;;5003959;28;20117;-69
2021/12/19 12:56:10;;;;;;;0.60;0.38;;;18.40;47.00;;;;;;5003128;28;20050;-69
2021/12/19 12:58:43;;;;;;;1.27;0.50;;;18.40;47.00;;;;;;5002786;28;20056;-70
2021/12/19 13:01:21;;;;;;;0.30;0.30;;;18.40;47.00;;;;;;5002997;28;20145;-68
2021/12/19 13:04:11;;;;;;;0.80;0.63;;;18.40;47.00;;;;;;5003045;28;20114;-70
2021/12/19 13:06:56;;;;;;;1.30;0.65;;;18.50;47.00;;;;;;4991802;28;20169;-70
2021/12/19 13:09:27;;;;;;;0.93;0.70;;;18.40;47.10;;;;;;5006843;28;20827;-69
2021/12/19 13:12:02;;;;;;;0.30;0.20;;;18.40;47.10;;;;;;5008747;28;20132;-69
2021/12/19 13:14:32;;;;;;;0.85;0.35;;;18.40;47.00;;;;;;4987437;28;20054;-69
2021/12/19 13:17:03;;;;;;;0.75;0.50;;;18.40;47.00;;;;;;5004337;28;20070;-68
2021/12/19 13:19:37;;;;;;;0.50;0.30;;;18.40;47.00;;;;;;5006524;28;20060;-68
2021/12/19 13:22:05;;;;;;;0.35;0.30;;;18.40;47.00;;;;;;5014955;28;20166;-69
2021/12/19 13:24:34;;;;;;;1.05;0.40;;;18.40;47.00;;;;;;5035802;28;20068;-69
2021/12/19 13:27:07;;;;;;;0.55;0.50;;;18.40;47.00;;;;;;5046056;28;20064;-69
2021/12/19 13:29:36;;;;;;;0.90;0.35;;;18.40;46.90;;;;;;5035368;28;20041;-69
2021/12/19 13:32:26;;;;;;;0.88;0.30;;;18.40;46.90;;;;;;5036161;28;20083;-68
2021/12/19 13:34:53;;;;;;;0.55;0.30;;;18.40;46.90;;;;;;5043020;28;20053;-69
2021/12/19 13:37:21;;;;;;;0.63;0.40;;;18.40;47.00;;;;;;5045297;28;20065;-68
2021/12/19 13:40:10;;;;;;;0.73;0.73;;;18.40;47.00;;;;;;5048329;28;20041;-69
2021/12/19 13:42:41;;;;;;;0.77;0.75;;;18.50;47.00;;;;;;5046343;28;20033;-67
2021/12/19 13:45:31;;;;;;;0.80;0.80;;;18.40;46.90;;;;;;5038476;28;20122;-69
2021/12/19 13:48:01;;;;;;;1.05;0.30;;;18.40;46.90;;;;;;5030919;28;20041;-69
2021/12/19 13:50:31;;;;;;;0.55;0.52;;;18.40;47.00;;;;;;5035649;28;20041;-69
2021/12/19 13:52:58;;;;;;;1.20;0.80;;;18.40;47.00;;;;;;5041472;28;20053;-69
2021/12/19 13:55:25;;;;;;;0.60;0.45;;;18.40;47.00;;;;;;5036725;28;20037;-69
2021/12/19 13:58:06;;;;;;;0.82;0.38;;;18.40;47.00;;;;;;5033923;28;20057;-70
2021/12/19 14:00:37;;;;;;;1.08;0.50;;;18.50;47.00;;;;;;5031311;28;20041;-70